Time;durP1;ratioP1;P1;durP2;ratioP2;P2;SDS_P1;SDS_P2;PMS_P1;PMS_P2;Temp;Humidity;BMP_temperature;BMP_pressure;BME280_temperature;BME280_humidity;BME280_pressure;Samples;Min_cycle;Max_cycle;Signal;HPM_P1;HPM_P2
2021/04/28 00:00:20;;;;;;;19.27;9.65;;;;;;;4.36;70.43;94463.91;5035684;28;20049;-70
2021/04/28 00:03:08;;;;;;;21.77;10.10;;;;;;;4.20;71.35;94465.69;5035836;28;20046;-69
2021/04/28 00:05:34;;;;;;;16.00;9.82;;;;;;;4.11;71.16;94460.19;5045026;28;20111;-69
2021/04/28 00:08:01;;;;;;;18.05;9.82;;;;;;;4.06;72.25;94462.75;5041341;28;20593;-70
2021/04/28 00:10:30;;;;;;;17.85;9.93;;;;;;;4.13;71.85;94463.31;5032396;28;20038;-70
2021/04/28 00:12:56;;;;;;;24.45;9.38;;;;;;;4.20;71.28;94458.66;5032123;28;20091;-69
2021/04/28 00:15:25;;;;;;;20.50;9.60;;;;;;;4.12;71.15;94457.31;5041844;28;20037;-70
2021/04/28 00:17:52;;;;;;;16.63;9.43;;;;;;;4.04;72.00;94454.38;5034465;28;20041;-69
2021/04/28 00:20:18;;;;;;;19.83;10.25;;;;;;;3.91;71.80;94448.63;5039736;28;20041;-70
2021/04/28 00:22:44;;;;;;;18.08;10.38;;;;;;;3.87;72.55;94444.97;5044051;28;20037;-70
2021/04/28 00:25:12;;;;;;;20.60;10.48;;;;;;;3.88;72.57;94451.75;5039780;28;20103;-69
2021/04/28 00:27:38;;;;;;;16.73;9.23;;;;;;;4.03;71.65;94453.63;5042553;28;20060;-69
2021/04/28 00:30:07;;;;;;;19.58;9.73;;;;;;;4.04;71.43;94455.19;5045259;28;20034;-69
2021/04/28 00:32:34;;;;;;;20.02;10.07;;;;;;;3.93;72.14;94454.34;5046422;28;20045;-70
2021/04/28 00:35:02;;;;;;;22.23;10.63;;;;;;;3.87;71.81;94447.56;5047415;28;20061;-69
2021/04/28 00:37:28;;;;;;;19.92;9.88;;;;;;;3.93;71.62;94454.34;5032236;28;20115;-69
2021/04/28 00:39:54;;;;;;;18.33;10.02;;;;;;;3.86;71.93;94443.38;5037285;28;20045;-69
2021/04/28 00:42:19;;;;;;;22.35;10.52;;;;;;;3.78;71.69;94441.28;5043585;28;20048;-69
2021/04/28 00:44:45;;;;;;;17.35;9.77;;;;;;;3.75;71.91;94436.56;5050598;28;20095;-70
2021/04/28 00:47:11;;;;;;;16.95;9.57;;;;;;;3.72;72.21;94437.88;5038433;28;20644;-69
2021/04/28 00:49:37;;;;;;;20.98;11.05;;;;;;;3.64;72.30;94456.53;5041594;28;20095;-69
2021/04/28 00:52:04;;;;;;;22.63;10.80;;;;;;;3.51;73.28;94442.16;5046266;28;20446;-69
2021/04/28 00:54:30;;;;;;;18.45;10.48;;;;;;;3.53;72.37;94450.47;5041593;28;20070;-69
2021/04/28 00:56:58;;;;;;;19.58;11.07;;;;;;;3.52;73.11;94443.72;5040956;28;20103;-70
2021/04/28 00:59:24;;;;;;;18.10;10.70;;;;;;;3.47;73.25;94456.69;5042508;28;20638;-70
2021/04/28 01:01:50;;;;;;;18.00;10.43;;;;;;;3.39;73.63;94455.34;5028494;28;20410;-70
2021/04/28 01:04:16;;;;;;;19.27;10.60;;;;;;;3.22;73.97;94450.28;5043594;28;20044;-70
2021/04/28 01:06:44;;;;;;;26.05;11.00;;;;;;;3.22;73.57;94447.69;5039150;28;20045;-70
2021/04/28 01:09:12;;;;;;;21.58;10.43;;;;;;;3.09;73.92;94440.31;5038696;28;20086;-70
2021/04/28 01:11:39;;;;;;;16.95;10.18;;;;;;;3.08;73.78;94443.94;5047483;28;20037;-70
2021/04/28 01:14:04;;;;;;;18.25;10.57;;;;;;;3.13;73.79;94446.56;5047249;28;20065;-70
2021/04/28 01:16:30;;;;;;;20.67;10.20;;;;;;;3.10;73.85;94452.25;5030884;28;20226;-70
2021/04/28 01:18:56;;;;;;;21.77;11.38;;;;;;;3.02;74.15;94450.13;5040708;28;20041;-69
2021/04/28 01:21:22;;;;;;;18.35;10.45;;;;;;;2.95;74.44;94450.31;5050239;28;20525;-70
2021/04/28 01:23:48;;;;;;;18.60;10.77;;;;;;;2.97;74.12;94437.84;5041960;28;20072;-70
2021/04/28 01:26:14;;;;;;;20.10;11.50;;;;;;;2.95;74.36;94440.69;5038466;28;20680;-70
2021/04/28 01:28:41;;;;;;;24.40;11.07;;;;;;;2.95;74.12;94439.94;5040156;28;20099;-70
2021/04/28 01:31:10;;;;;;;19.55;10.32;;;;;;;2.87;74.37;94433.34;5049211;28;20033;-69
2021/04/28 01:33:44;;;;;;;22.38;9.82;;;;;;;2.90;73.69;94443.28;5044675;28;20048;-69
2021/04/28 01:36:16;;;;;;;23.85;10.20;;;;;;;2.89;73.71;94441.69;5044967;28;20048;-70
2021/04/28 01:38:44;;;;;;;20.27;10.68;;;;;;;2.82;74.05;94441.09;5033798;28;20119;-70
2021/04/28 01:41:10;;;;;;;18.73;10.30;;;;;;;2.75;73.82;94443.91;5045292;28;20299;-70
2021/04/28 01:43:36;;;;;;;19.92;10.60;;;;;;;2.69;74.38;94449.31;5045925;28;20491;-69
2021/04/28 01:46:03;;;;;;;21.42;10.63;;;;;;;2.59;74.47;94442.97;5047016;28;20045;-70
2021/04/28 01:48:30;;;;;;;23.08;11.23;;;;;;;2.60;75.00;94449.75;5042710;28;20045;-70
2021/04/28 01:50:57;;;;;;;21.52;11.25;;;;;;;2.61;74.70;94450.50;5046415;28;20037;-70
2021/04/28 01:53:24;;;;;;;19.38;10.70;;;;;;;2.64;74.60;94455.22;5037924;28;20037;-70
2021/04/28 01:55:52;;;;;;;21.48;11.23;;;;;;;2.58;74.57;94446.59;5032597;28;20041;-70
2021/04/28 01:58:19;;;;;;;22.23;11.60;;;;;;;2.50;74.56;94449.66;5038899;28;20098;-70
2021/04/28 02:00:45;;;;;;;23.88;10.90;;;;;;;2.38;75.12;94448.97;5039747;28;20052;-70
2021/04/28 02:03:11;;;;;;;21.48;11.43;;;;;;;2.45;74.62;94441.78;5047186;28;20064;-70
2021/04/28 02:05:37;;;;;;;24.25;10.65;;;;;;;2.34;75.79;94445.31;5047889;28;20041;-69
2021/04/28 02:08:04;;;;;;;24.17;11.40;;;;;;;2.33;76.30;94444.53;5044329;28;20046;-69
2021/04/28 02:10:30;;;;;;;25.00;12.25;;;;;;;2.22;76.91;94437.66;5041229;28;20044;-70
2021/04/28 02:12:56;;;;;;;22.65;11.00;;;;;;;2.29;75.21;94432.28;5053272;28;20068;-70
2021/04/28 02:15:24;;;;;;;22.50;10.45;;;;;;;2.27;74.87;94435.13;5049555;28;20037;-70
2021/04/28 02:17:55;;;;;;;22.17;10.48;;;;;;;2.20;75.62;94435.31;5050236;28;20104;-70
2021/04/28 02:20:24;;;;;;;23.55;11.82;;;;;;;2.14;75.79;94430.28;5045429;28;20486;-70
2021/04/28 02:22:50;;;;;;;19.88;11.05;;;;;;;2.07;76.38;94430.50;5033323;28;20046;-70
2021/04/28 02:25:16;;;;;;;18.88;11.00;;;;;;;2.11;76.32;94421.16;5037610;28;20233;-70
2021/04/28 02:27:42;;;;;;;19.90;11.35;;;;;;;2.22;75.68;94428.03;5039726;28;20407;-70
2021/04/28 02:30:13;;;;;;;16.95;10.27;;;;;;;2.35;75.25;94426.09;5039734;28;20041;-70
2021/04/28 02:32:39;;;;;;;23.48;11.25;;;;;;;2.16;75.84;94426.44;5046284;28;20056;-71
2021/04/28 02:35:06;;;;;;;23.80;10.70;;;;;;;2.08;75.40;94432.03;5033258;28;20051;-70
2021/04/28 02:37:32;;;;;;;20.80;11.90;;;;;;;2.00;76.33;94429.88;5042893;28;20486;-70
2021/04/28 02:40:06;;;;;;;22.63;10.93;;;;;;;1.98;75.72;94431.91;5041982;28;20030;-70
2021/04/28 02:42:32;;;;;;;23.15;11.15;;;;;;;1.97;75.95;94432.94;5039185;28;20120;-70
2021/04/28 02:45:00;;;;;;;21.48;10.70;;;;;;;1.94;76.20;94430.84;5053026;28;20033;-70
2021/04/28 02:47:27;;;;;;;24.33;11.90;;;;;;;1.92;76.28;94422.50;5043667;28;20045;-71
2021/04/28 02:49:53;;;;;;;21.95;11.45;;;;;;;1.84;76.27;94424.50;5042158;28;20041;-70
2021/04/28 02:52:21;;;;;;;21.65;10.88;;;;;;;1.84;75.84;94421.09;5050001;28;20502;-70
2021/04/28 02:54:50;;;;;;;22.58;11.23;;;;;;;1.78;75.89;94417.69;5044531;28;20038;-70
2021/04/28 02:57:16;;;;;;;22.90;11.35;;;;;;;1.83;76.19;94420.34;5039746;28;20040;-70
2021/04/28 02:59:42;;;;;;;22.27;11.43;;;;;;;1.79;76.03;94419.25;5043873;28;20041;-70
2021/04/28 03:02:08;;;;;;;20.00;11.30;;;;;;;1.55;76.99;94414.28;5036532;28;20449;-71
2021/04/28 03:04:39;;;;;;;24.13;11.45;;;;;;;1.44;77.42;94416.94;5034561;28;20037;-70
2021/04/28 03:07:05;;;;;;;22.80;11.93;;;;;;;1.43;78.00;94416.19;5038345;28;20065;-70
2021/04/28 03:09:31;;;;;;;23.42;12.68;;;;;;;1.52;78.02;94414.78;5048202;28;20115;-70
2021/04/28 03:11:57;;;;;;;22.48;12.07;;;;;;;1.44;77.08;94414.38;5048728;28;20044;-70
2021/04/28 03:14:23;;;;;;;23.45;11.23;;;;;;;1.50;76.62;94411.59;5040014;28;20088;-70
2021/04/28 03:16:49;;;;;;;20.52;12.15;;;;;;;1.36;77.35;94400.78;5041544;28;20041;-70
2021/04/28 03:19:16;;;;;;;25.92;11.65;;;;;;;1.40;77.03;94411.47;5053213;28;20048;-70
2021/04/28 03:21:46;;;;;;;23.00;11.88;;;;;;;1.59;76.62;94419.00;5043295;28;20037;-70
2021/04/28 03:24:12;;;;;;;23.95;11.07;;;;;;;1.53;76.95;94416.31;5045735;28;20138;-70
2021/04/28 03:26:38;;;;;;;21.50;11.93;;;;;;;1.39;77.04;94425.44;5039975;28;20037;-70
2021/04/28 03:29:04;;;;;;;25.05;12.52;;;;;;;1.31;78.30;94424.06;5035163;28;20049;-70
2021/04/28 03:31:29;;;;;;;21.35;11.45;;;;;;;1.29;77.98;94420.13;5047392;28;20041;-70
2021/04/28 03:33:55;;;;;;;22.05;12.02;;;;;;;1.26;77.92;94420.59;5038599;28;20037;-70
2021/04/28 03:36:20;;;;;;;19.30;11.68;;;;;;;1.23;77.98;94427.03;5042734;28;20109;-69
2021/04/28 03:38:46;;;;;;;23.70;12.13;;;;;;;1.24;78.34;94417.47;5050491;28;20484;-69
2021/04/28 03:41:12;;;;;;;23.35;11.38;;;;;;;1.27;78.00;94427.38;5043249;28;20037;-69
2021/04/28 03:43:38;;;;;;;27.48;12.25;;;;;;;1.25;78.20;94429.41;5049318;28;20083;-70
2021/04/28 03:46:03;;;;;;;23.42;11.93;;;;;;;1.26;78.43;94433.56;5047405;28;20040;-69
2021/04/28 03:48:29;;;;;;;25.42;12.85;;;;;;;1.13;78.24;94427.66;5051976;28;20374;-69
2021/04/28 03:50:55;;;;;;;20.50;12.02;;;;;;;1.05;78.18;94428.09;5048385;28;20044;-69
2021/04/28 03:53:21;;;;;;;24.75;12.57;;;;;;;1.10;78.13;94422.97;5049251;28;20392;-69
2021/04/28 03:55:46;;;;;;;26.65;12.43;;;;;;;1.02;78.27;94418.16;5036666;28;20175;-70
2021/04/28 03:58:12;;;;;;;24.02;12.38;;;;;;;1.01;78.09;94425.16;5047782;28;20041;-69
2021/04/28 04:00:38;;;;;;;21.75;10.85;;;;;;;1.14;77.78;94423.28;5049448;28;20098;-69
2021/04/28 04:03:05;;;;;;;19.70;11.40;;;;;;;1.10;77.92;94422.19;5047849;28;20037;-69
2021/04/28 04:05:31;;;;;;;22.23;11.57;;;;;;;0.98;78.07;94424.88;5049230;28;20036;-70
2021/04/28 04:07:57;;;;;;;22.63;11.63;;;;;;;1.01;78.58;94424.38;5034603;28;20053;-69
2021/04/28 04:10:22;;;;;;;24.27;12.70;;;;;;;1.02;78.83;94431.13;5032013;28;20465;-70
2021/04/28 04:12:48;;;;;;;26.00;12.70;;;;;;;1.06;78.89;94427.03;5035801;28;20195;-69
2021/04/28 04:15:14;;;;;;;23.98;11.93;;;;;;;1.10;78.10;94430.75;5034573;28;20495;-69
2021/04/28 04:17:39;;;;;;;20.02;11.77;;;;;;;1.12;77.52;94426.13;5047203;28;20048;-70
2021/04/28 04:20:06;;;;;;;20.30;10.95;;;;;;;1.18;77.05;94429.56;5050693;28;20041;-69
2021/04/28 04:22:32;;;;;;;19.90;10.75;;;;;;;1.17;77.34;94433.94;5031347;28;20518;-69
2021/04/28 04:24:58;;;;;;;20.67;11.75;;;;;;;1.18;77.48;94435.53;5046781;28;20045;-70
2021/04/28 04:27:23;;;;;;;18.85;10.65;;;;;;;1.28;77.15;94434.09;5032306;28;20511;-69
2021/04/28 04:29:50;;;;;;;18.90;11.13;;;;;;;1.21;78.31;94429.88;5040448;28;20037;-69
2021/04/28 04:32:15;;;;;;;19.55;11.60;;;;;;;1.19;78.00;94431.94;5030726;28;20370;-70
2021/04/28 04:34:41;;;;;;;22.52;12.10;;;;;;;1.17;77.92;94423.59;5030972;28;20048;-70
2021/04/28 04:37:07;;;;;;;24.88;11.60;;;;;;;1.23;77.89;94427.03;5037599;28;20523;-70
2021/04/28 04:39:32;;;;;;;21.60;11.55;;;;;;;1.29;77.87;94430.50;5045658;28;20045;-70
2021/04/28 04:41:58;;;;;;;23.88;11.63;;;;;;;1.35;77.30;94430.34;5043429;28;20037;-70
2021/04/28 04:44:23;;;;;;;23.33;11.88;;;;;;;1.39;77.80;94433.22;5048377;28;20033;-69
2021/04/28 04:46:49;;;;;;;21.95;12.48;;;;;;;1.47;78.17;94425.06;5047847;28;20159;-70
2021/04/28 04:49:15;;;;;;;26.35;12.75;;;;;;;1.53;78.04;94426.69;5032769;28;20045;-71
2021/04/28 04:51:40;;;;;;;32.15;13.02;;;;;;;1.79;77.68;94432.22;5032433;28;20045;-71
2021/04/28 04:54:06;;;;;;;26.95;12.98;;;;;;;1.84;77.29;94431.47;5040073;28;20045;-72
2021/04/28 04:56:32;;;;;;;25.13;12.25;;;;;;;1.81;77.44;94422.41;5038533;28;20037;-70
2021/04/28 04:58:58;;;;;;;25.95;12.43;;;;;;;1.89;77.54;94429.75;5046796;28;20321;-69
2021/04/28 05:01:24;;;;;;;27.88;12.85;;;;;;;2.04;77.19;94430.94;5043925;28;20049;-71
2021/04/28 05:03:49;;;;;;;27.90;12.98;;;;;;;2.16;77.00;94418.63;5050143;28;20563;-71
2021/04/28 05:06:15;;;;;;;36.17;13.32;;;;;;;2.15;77.96;94427.44;5041846;28;20065;-72
2021/04/28 05:08:40;;;;;;;29.80;14.02;;;;;;;2.23;78.12;94429.63;5034225;28;20048;-72
2021/04/28 05:11:06;;;;;;;24.73;13.73;;;;;;;2.31;77.30;94432.81;5033473;28;20037;-72
2021/04/28 05:13:32;;;;;;;30.13;14.07;;;;;;;2.31;77.83;94430.22;5051304;28;20051;-71
2021/04/28 05:15:57;;;;;;;27.98;14.30;;;;;;;2.45;78.39;94436.59;5043596;28;20033;-71
2021/04/28 05:18:23;;;;;;;33.65;15.20;;;;;;;2.52;78.09;94431.22;5042063;28;20548;-71
2021/04/28 05:20:48;;;;;;;32.50;15.05;;;;;;;2.68;78.01;94435.53;5035423;28;20055;-72
2021/04/28 05:23:14;;;;;;;24.80;14.50;;;;;;;2.91;77.25;94433.66;5050198;28;20494;-71
2021/04/28 05:25:39;;;;;;;33.10;15.05;;;;;;;2.99;77.23;94429.81;5042238;28;20044;-72
2021/04/28 05:28:05;;;;;;;25.15;13.57;;;;;;;3.14;77.08;94437.72;5041201;28;20041;-71
2021/04/28 05:30:31;;;;;;;24.95;13.98;;;;;;;3.27;76.44;94432.09;5034079;28;20037;-71
2021/04/28 05:32:57;;;;;;;24.77;14.95;;;;;;;3.44;76.45;94436.38;5039813;28;20044;-72
2021/04/28 05:35:23;;;;;;;31.33;15.13;;;;;;;3.75;75.48;94426.16;5048313;28;20044;-72
2021/04/28 05:37:49;;;;;;;26.13;14.20;;;;;;;3.89;74.99;94431.69;5041225;28;20042;-71
2021/04/28 05:40:15;;;;;;;29.98;15.15;;;;;;;4.12;74.43;94430.47;5035070;28;20487;-71
2021/04/28 05:42:40;;;;;;;25.50;14.10;;;;;;;4.28;73.43;94439.94;5033735;28;20422;-70
2021/04/28 05:45:08;;;;;;;32.25;16.40;;;;;;;4.38;73.79;94433.16;5043393;28;20033;-71
2021/04/28 05:47:35;;;;;;;27.38;14.70;;;;;;;4.45;73.64;94438.94;5034453;28;20445;-71
2021/04/28 05:50:01;;;;;;;28.70;15.13;;;;;;;4.75;73.01;94438.19;5043706;28;20120;-70
2021/04/28 05:52:27;;;;;;;27.83;15.52;;;;;;;5.08;72.21;94435.38;5043294;28;20052;-71
2021/04/28 05:54:52;;;;;;;29.08;15.45;;;;;;;5.28;71.01;94422.31;5043617;28;20288;-70
2021/04/28 05:57:18;;;;;;;30.92;16.13;;;;;;;5.49;71.01;94430.16;5043111;28;20041;-71
2021/04/28 05:59:44;;;;;;;29.20;15.60;;;;;;;5.50;71.63;94429.09;5036594;28;20458;-71
2021/04/28 06:02:11;;;;;;;27.42;15.68;;;;;;;5.60;72.48;94431.66;5045090;28;20041;-71
2021/04/28 06:04:37;;;;;;;24.30;15.00;;;;;;;5.73;72.05;94420.69;5034455;28;20048;-71
2021/04/28 06:07:03;;;;;;;29.42;15.52;;;;;;;5.82;72.17;94422.75;5033241;28;20068;-71
2021/04/28 06:09:29;;;;;;;31.33;15.65;;;;;;;5.98;72.29;94424.31;5044786;28;20045;-71
2021/04/28 06:11:55;;;;;;;26.75;15.05;;;;;;;6.10;70.89;94418.00;5045404;28;20095;-71
2021/04/28 06:14:20;;;;;;;29.05;15.70;;;;;;;6.27;70.83;94408.00;5038754;28;20128;-72
2021/04/28 06:16:46;;;;;;;30.88;15.57;;;;;;;6.46;68.99;94410.00;5031096;28;20569;-73
2021/04/28 06:19:12;;;;;;;25.85;14.93;;;;;;;6.77;68.87;94413.22;5037775;28;20071;-73
2021/04/28 06:21:38;;;;;;;30.25;16.55;;;;;;;6.78;70.70;94416.59;5036458;28;20049;-72
2021/04/28 06:24:07;;;;;;;45.70;16.95;;;;;;;6.83;71.02;94413.97;5030437;28;20037;-72
2021/04/28 06:26:33;;;;;;;33.83;16.50;;;;;;;7.01;69.46;94423.78;5036736;28;20060;-72
2021/04/28 06:28:59;;;;;;;33.30;16.67;;;;;;;7.08;70.74;94420.84;5037917;28;20060;-73
2021/04/28 06:31:24;;;;;;;34.17;16.30;;;;;;;7.17;70.38;94419.22;5039357;28;20048;-73
2021/04/28 06:33:51;;;;;;;26.33;14.57;;;;;;;7.61;66.33;94422.75;5044831;28;20049;-72
2021/04/28 06:36:16;;;;;;;30.65;16.65;;;;;;;7.92;66.38;94417.97;5037351;28;20057;-72
2021/04/28 06:38:42;;;;;;;28.73;15.32;;;;;;;7.90;66.90;94421.94;5036651;28;20033;-72
2021/04/28 06:41:07;;;;;;;26.33;15.43;;;;;;;8.05;66.06;94416.53;5035486;28;20483;-73
2021/04/28 06:43:33;;;;;;;28.60;15.60;;;;;;;8.13;65.30;94423.78;5030700;28;20113;-72
2021/04/28 06:45:59;;;;;;;28.02;14.70;;;;;;;8.30;64.85;94427.75;5038958;28;20075;-72
2021/04/28 06:48:25;;;;;;;27.13;15.32;;;;;;;8.13;65.48;94408.06;5047198;28;20437;-72
2021/04/28 06:50:52;;;;;;;25.25;14.27;;;;;;;8.21;65.88;94419.75;5051346;28;20166;-72
2021/04/28 06:53:18;;;;;;;25.65;14.27;;;;;;;8.45;65.71;94419.75;5040379;28;20161;-72
2021/04/28 06:55:44;;;;;;;29.75;16.23;;;;;;;8.33;64.72;94416.72;5043051;28;20383;-71
2021/04/28 06:58:10;;;;;;;24.15;14.25;;;;;;;8.39;64.27;94410.34;5043461;28;20510;-72
2021/04/28 07:00:36;;;;;;;25.92;14.93;;;;;;;8.63;63.41;94417.41;5047032;28;20048;-72
2021/04/28 07:03:01;;;;;;;30.77;15.77;;;;;;;8.79;64.55;94418.78;5043445;28;20045;-72
2021/04/28 07:05:27;;;;;;;29.75;15.18;;;;;;;8.75;65.02;94417.78;5036343;28;20046;-71
2021/04/28 07:07:56;;;;;;;27.65;15.55;;;;;;;8.84;62.83;94426.56;5039105;28;20454;-71
2021/04/28 07:10:22;;;;;;;24.63;15.07;;;;;;;8.91;62.58;94420.97;5038608;28;20056;-72
2021/04/28 07:12:48;;;;;;;32.60;15.40;;;;;;;8.95;63.54;94423.78;5046117;28;20057;-72
2021/04/28 07:15:13;;;;;;;28.02;15.25;;;;;;;8.98;64.20;94421.38;5051014;28;20045;-72
2021/04/28 07:17:39;;;;;;;25.50;15.85;;;;;;;9.17;62.25;94421.34;5042396;28;20045;-72
2021/04/28 07:20:07;;;;;;;30.52;16.73;;;;;;;9.27;64.03;94417.78;5046468;28;20049;-71
2021/04/28 07:22:34;;;;;;;30.17;15.57;;;;;;;9.28;62.88;94421.19;5050260;28;20068;-71
2021/04/28 07:24:59;;;;;;;29.13;16.10;;;;;;;9.37;61.85;94416.84;5040757;28;20090;-71
2021/04/28 07:27:25;;;;;;;31.50;16.02;;;;;;;9.50;62.30;94416.09;5037872;28;20051;-72
2021/04/28 07:29:50;;;;;;;31.05;15.43;;;;;;;10.11;58.73;94423.94;5051503;28;20052;-72
2021/04/28 07:32:16;;;;;;;34.72;16.10;;;;;;;10.32;59.60;94423.53;5042515;28;20400;-72
2021/04/28 07:34:43;;;;;;;30.58;15.55;;;;;;;10.26;58.28;94419.44;5049171;28;20033;-72
2021/04/28 07:37:08;;;;;;;49.60;17.90;;;;;;;10.38;57.99;94422.38;5034460;28;20048;-72
2021/04/28 07:39:35;;;;;;;25.00;14.95;;;;;;;10.54;58.27;94421.00;5047766;28;20106;-71
2021/04/28 07:42:01;;;;;;;29.77;15.55;;;;;;;10.52;57.93;94428.41;5050434;28;20041;-72
2021/04/28 07:44:30;;;;;;;25.05;15.35;;;;;;;10.70;55.96;94428.56;5048455;28;20044;-71
2021/04/28 07:46:58;;;;;;;24.85;14.57;;;;;;;10.78;55.22;94425.25;5036382;28;20034;-72
2021/04/28 07:49:24;;;;;;;25.35;13.73;;;;;;;11.19;55.94;94424.31;5038878;28;20601;-71
2021/04/28 07:51:50;;;;;;;30.55;14.30;;;;;;;11.15;56.77;94423.38;5042391;28;20052;-72
2021/04/28 07:54:16;;;;;;;25.00;14.30;;;;;;;11.23;54.80;94425.28;5043405;28;20041;-72
2021/04/28 07:56:41;;;;;;;24.05;14.32;;;;;;;11.22;56.08;94423.72;5044587;28;20447;-72
2021/04/28 07:59:07;;;;;;;25.85;14.65;;;;;;;11.21;55.11;94427.44;5044975;28;20049;-72
2021/04/28 08:01:33;;;;;;;34.10;14.60;;;;;;;11.36;54.13;94425.50;5032264;28;20041;-71
2021/04/28 08:03:59;;;;;;;22.60;13.77;;;;;;;11.59;55.18;94427.06;5045284;28;20079;-72
2021/04/28 08:06:25;;;;;;;21.50;13.80;;;;;;;11.45;54.14;94421.09;5036656;28;20042;-71
2021/04/28 08:08:51;;;;;;;23.90;14.27;;;;;;;11.71;53.30;94428.34;5032684;28;20064;-72
2021/04/28 08:11:17;;;;;;;28.77;14.68;;;;;;;11.57;53.60;94421.28;5035081;28;20052;-72
2021/04/28 08:13:42;;;;;;;32.60;15.88;;;;;;;11.58;54.00;94414.94;5050883;28;20045;-71
2021/04/28 08:16:08;;;;;;;27.60;15.23;;;;;;;11.63;52.96;94418.53;5042663;28;20049;-71
2021/04/28 08:18:34;;;;;;;31.33;15.52;;;;;;;11.64;53.02;94417.44;5039490;28;20484;-71
2021/04/28 08:21:00;;;;;;;27.88;15.20;;;;;;;11.65;52.88;94416.38;5034233;28;20057;-72
2021/04/28 08:23:29;;;;;;;26.23;14.00;;;;;;;11.65;53.29;94413.72;5047920;28;20040;-71
2021/04/28 08:25:57;;;;;;;26.40;13.77;;;;;;;11.68;52.66;94418.41;5031509;28;20041;-74
2021/04/28 08:28:23;;;;;;;23.45;14.48;;;;;;;11.79;51.85;94417.84;5042257;28;20041;-72
2021/04/28 08:30:49;;;;;;;22.90;13.38;;;;;;;11.72;53.18;94420.16;5031744;28;20430;-73
2021/04/28 08:33:14;;;;;;;24.30;13.57;;;;;;;11.89;53.37;94424.69;5034988;28;20045;-71
2021/04/28 08:35:41;;;;;;;22.20;13.38;;;;;;;11.80;53.53;94421.25;5032713;28;20553;-72
2021/04/28 08:38:06;;;;;;;25.50;14.93;;;;;;;12.16;52.08;94428.25;5031951;28;20038;-72
2021/04/28 08:40:33;;;;;;;25.55;14.85;;;;;;;12.06;53.12;94424.03;5026513;28;20387;-72
2021/04/28 08:42:58;;;;;;;32.75;14.48;;;;;;;12.02;52.62;94423.06;5036109;28;20100;-72
2021/04/28 08:45:24;;;;;;;24.05;14.25;;;;;;;12.14;52.60;94419.88;5033658;28;20751;-72
2021/04/28 08:47:50;;;;;;;30.27;14.43;;;;;;;12.16;52.37;94428.25;5034256;28;20041;-72
2021/04/28 08:50:16;;;;;;;27.15;15.60;;;;;;;12.22;51.80;94421.75;5038758;28;20086;-73
2021/04/28 08:52:42;;;;;;;33.47;15.45;;;;;;;12.38;49.51;94423.97;5039191;28;20041;-72
2021/04/28 08:55:09;;;;;;;22.10;14.25;;;;;;;12.45;50.16;94419.78;5044347;28;20791;-72
2021/04/28 08:57:35;;;;;;;28.60;14.52;;;;;;;12.50;51.66;94413.59;5038976;28;20049;-72
2021/04/28 09:00:03;;;;;;;27.10;14.48;;;;;;;12.51;51.81;94404.59;5035709;28;20045;-72
2021/04/28 09:02:28;;;;;;;25.48;15.75;;;;;;;12.85;50.79;94400.44;5034610;28;20053;-72
2021/04/28 09:05:12;;;;;;;32.75;15.20;;;;;;;13.06;49.93;94407.72;5036968;28;20222;-72
2021/04/28 09:07:39;;;;;;;38.70;15.75;;;;;;;13.05;50.02;94398.28;5033031;28;20036;-73
2021/04/28 09:10:16;;;;;;;25.92;14.38;;;;;;;13.15;49.10;94403.22;5036155;28;20045;-73
2021/04/28 09:12:58;;;;;;;37.17;16.10;;;;;;;13.26;48.54;94404.47;5035795;28;20037;-72
2021/04/28 09:15:35;;;;;;;27.23;15.38;;;;;;;13.35;48.91;94407.13;5033851;28;20044;-72
2021/04/28 09:18:01;;;;;;;29.88;15.20;;;;;;;13.35;48.94;94407.13;5037036;28;20163;-72
2021/04/28 09:23:09;;;;;;;26.83;15.65;;;;;;;13.67;48.96;94403.16;5039309;28;20498;-72
2021/04/28 09:25:47;;;;;;;29.45;15.93;;;;;;;13.69;49.25;94400.97;5031647;28;20049;-74
2021/04/28 09:28:30;;;;;;;28.23;15.40;;;;;;;13.88;49.07;94407.75;5037600;28;20068;-72
2021/04/28 09:31:12;;;;;;;21.42;14.35;;;;;;;14.27;47.08;94403.22;5029461;28;20084;-71
2021/04/28 09:33:40;;;;;;;35.75;15.52;;;;;;;14.41;47.33;94402.22;5036192;28;20045;-72
2021/04/28 09:36:06;;;;;;;25.05;15.20;;;;;;;14.24;47.55;94395.94;5034008;28;20517;-72
2021/04/28 09:38:36;;;;;;;25.27;15.40;;;;;;;14.35;47.70;94389.19;5035028;28;20041;-72
2021/04/28 09:41:02;;;;;;;29.35;16.05;;;;;;;14.43;46.78;94389.44;5034432;28;20440;-71
2021/04/28 09:43:37;;;;;;;28.23;16.27;;;;;;;14.32;46.56;94395.13;5032074;28;20091;-73
2021/04/28 09:46:02;;;;;;;24.52;15.63;;;;;;;14.56;45.95;94388.44;5041027;28;20041;-72
2021/04/28 09:48:28;;;;;;;30.63;15.48;;;;;;;14.55;46.10;94381.56;5042204;28;20567;-71
2021/04/28 09:51:08;;;;;;;27.38;16.20;;;;;;;14.54;46.23;94390.63;5041412;28;20044;-71
2021/04/28 09:53:33;;;;;;;24.85;15.60;;;;;;;14.83;46.22;94383.75;5041304;28;20048;-70
2021/04/28 09:56:00;;;;;;;24.15;15.43;;;;;;;14.99;46.43;94387.34;5045652;28;20041;-68
2021/04/28 09:58:47;;;;;;;25.45;14.75;;;;;;;15.71;44.67;94387.13;5033737;28;20046;-69
2021/04/28 10:01:17;;;;;;;24.90;15.45;;;;;;;15.53;43.12;94380.47;5030623;28;20443;-70
2021/04/28 10:03:45;;;;;;;24.63;15.52;;;;;;;15.65;43.10;94382.38;5030085;28;20596;-71
2021/04/28 10:06:11;;;;;;;26.55;15.55;;;;;;;15.96;42.79;94376.59;5046816;28;20060;-69
2021/04/28 10:08:36;;;;;;;28.35;15.98;;;;;;;16.07;42.87;94383.00;5029838;28;20041;-70
2021/04/28 10:11:02;;;;;;;29.77;14.57;;;;;;;16.42;41.46;94374.59;5038221;28;20045;-70
2021/04/28 10:13:28;;;;;;;21.88;14.02;;;;;;;16.28;38.32;94382.13;5037178;28;20501;-70
2021/04/28 10:15:54;;;;;;;29.30;15.38;;;;;;;16.36;39.97;94388.41;5044636;28;20049;-70
2021/04/28 10:18:22;;;;;;;23.08;14.65;;;;;;;16.68;39.99;94373.44;5031234;28;20052;-70
2021/04/28 10:20:50;;;;;;;34.75;14.65;;;;;;;17.07;38.60;94373.78;5030646;28;20107;-69
2021/04/28 10:23:17;;;;;;;31.17;13.75;;;;;;;17.83;35.66;94371.16;5033074;28;20034;-70
2021/04/28 10:25:48;;;;;;;23.08;11.65;;;;;;;18.26;32.37;94365.31;5038942;28;20048;-70
2021/04/28 10:28:14;;;;;;;16.73;11.63;;;;;;;20.05;30.40;94361.94;5040041;28;20047;-69
2021/04/28 10:30:45;;;;;;;20.42;12.85;;;;;;;19.36;30.53;94357.31;5043325;28;20379;-69
2021/04/28 10:33:19;;;;;;;17.42;12.38;;;;;;;20.38;30.07;94365.84;5041069;28;20041;-69
2021/04/28 10:35:46;;;;;;;22.05;12.18;;;;;;;20.19;30.51;94359.47;5038080;28;20063;-70
2021/04/28 10:38:12;;;;;;;22.85;12.80;;;;;;;20.40;29.93;94366.25;5045734;28;20056;-69
2021/04/28 10:40:38;;;;;;;20.85;12.75;;;;;;;21.89;27.56;94354.22;5041249;28;20498;-69
2021/04/28 10:43:09;;;;;;;16.20;11.77;;;;;;;22.44;26.53;94344.69;5035317;28;20049;-69
2021/04/28 10:45:38;;;;;;;24.50;12.75;;;;;;;21.72;28.89;94338.78;5038868;28;20426;-69
2021/04/28 10:48:11;;;;;;;24.13;14.55;;;;;;;20.22;30.43;94356.06;5037780;28;20064;-69
2021/04/28 10:50:48;;;;;;;19.80;12.95;;;;;;;22.57;28.17;94337.09;5049161;28;20052;-70
2021/04/28 10:53:27;;;;;;;27.08;14.18;;;;;;;22.04;28.61;94343.63;5044267;28;20387;-69
2021/04/28 10:56:11;;;;;;;21.98;13.95;;;;;;;22.20;27.53;94336.09;5040891;28;20037;-69
2021/04/28 10:58:39;;;;;;;26.98;14.02;;;;;;;22.55;27.15;94334.81;5038683;28;20049;-69
2021/04/28 11:01:05;;;;;;;27.33;14.43;;;;;;;21.71;28.72;94331.91;5039729;28;20064;-71
2021/04/28 11:03:42;;;;;;;20.83;13.15;;;;;;;22.70;27.03;94340.25;5042393;28;20494;-71
2021/04/28 11:06:20;;;;;;;23.15;12.77;;;;;;;23.41;25.74;94333.63;5041177;28;20322;-72
2021/04/28 11:09:07;;;;;;;22.63;14.10;;;;;;;23.01;27.25;94328.91;5047136;28;20041;-71
2021/04/28 11:11:34;;;;;;;19.80;13.55;;;;;;;22.22;28.10;94333.81;5043343;28;20522;-71
2021/04/28 11:14:17;;;;;;;21.98;13.75;;;;;;;23.82;25.97;94330.59;5046460;28;20080;-71
2021/04/28 11:16:48;;;;;;;19.55;13.50;;;;;;;23.80;26.11;94338.28;5049008;28;20449;-71
2021/04/28 11:19:14;;;;;;;19.10;12.63;;;;;;;25.90;22.02;94331.09;5035204;28;20503;-71
2021/04/28 11:21:40;;;;;;;20.27;12.32;;;;;;;24.69;23.23;94329.41;5037292;28;20060;-69
2021/04/28 11:24:10;;;;;;;21.40;13.02;;;;;;;24.54;24.21;94333.28;5035287;28;20042;-69